sensor_id;sensor_type;location;lat;lon;timestamp;temperature;humidity
435;DHT22;204;48.942;9.256;2023-05-10T00:01:37;15.70;1.00
435;DHT22;204;48.942;9.256;2023-05-10T00:04:03;15.70;1.00
435;DHT22;204;48.942;9.256;2023-05-10T00:06:29;15.50;1.00
435;DHT22;204;48.942;9.256;2023-05-10T00:08:55;15.50;1.00
435;DHT22;204;48.942;9.256;2023-05-10T00:11:20;15.40;1.00
435;DHT22;204;48.942;9.256;2023-05-10T00:13:46;15.40;1.00
435;DHT22;204;48.942;9.256;2023-05-10T00:16:12;15.40;1.00
435;DHT22;204;48.942;9.256;2023-05-10T00:18:38;15.40;1.00
435;DHT22;204;48.942;9.256;2023-05-10T00:21:04;15.40;1.00
435;DHT22;204;48.942;9.256;2023-05-10T00:23:30;15.30;1.00
435;DHT22;204;48.942;9.256;2023-05-10T00:25:56;15.30;1.00
435;DHT22;204;48.942;9.256;2023-05-10T00:28:21;15.20;1.00
435;DHT22;204;48.942;9.256;2023-05-10T00:30:47;15.20;1.00
435;DHT22;204;48.942;9.256;2023-05-10T00:33:13;15.10;1.00
435;DHT22;204;48.942;9.256;2023-05-10T00:35:38;15.00;1.00
435;DHT22;204;48.942;9.256;2023-05-10T00:38:04;14.90;1.00
435;DHT22;204;48.942;9.256;2023-05-10T00:40:30;14.90;1.00
435;DHT22;204;48.942;9.256;2023-05-10T00:42:56;14.80;1.00
435;DHT22;204;48.942;9.256;2023-05-10T00:45:22;14.80;1.00
435;DHT22;204;48.942;9.256;2023-05-10T00:47:48;14.80;1.00
435;DHT22;204;48.942;9.256;2023-05-10T00:50:14;14.70;1.00
435;DHT22;204;48.942;9.256;2023-05-10T00:52:41;14.70;1.00
435;DHT22;204;48.942;9.256;2023-05-10T00:55:08;14.70;1.00
435;DHT22;204;48.942;9.256;2023-05-10T00:57:34;14.70;1.00
435;DHT22;204;48.942;9.256;2023-05-10T01:00:01;14.70;1.00
435;DHT22;204;48.942;9.256;2023-05-10T01:02:27;14.70;1.00
435;DHT22;204;48.942;9.256;2023-05-10T01:04:53;14.60;1.00
435;DHT22;204;48.942;9.256;2023-05-10T01:07:19;14.60;1.00
435;DHT22;204;48.942;9.256;2023-05-10T01:09:45;14.60;1.00
435;DHT22;204;48.942;9.256;2023-05-10T01:12:11;14.50;1.00
435;DHT22;204;48.942;9.256;2023-05-10T01:14:37;14.50;1.00
435;DHT22;204;48.942;9.256;2023-05-10T01:17:03;14.50;1.00
435;DHT22;204;48.942;9.256;2023-05-10T01:19:31;14.40;1.00
435;DHT22;204;48.942;9.256;2023-05-10T01:28:39;14.30;1.00
435;DHT22;204;48.942;9.256;2023-05-10T01:33:55;14.20;1.00
435;DHT22;204;48.942;9.256;2023-05-10T01:36:25;14.20;1.00
435;DHT22;204;48.942;9.256;2023-05-10T01:46:28;14.30;1.00
435;DHT22;204;48.942;9.256;2023-05-10T01:48:59;14.30;1.00
435;DHT22;204;48.942;9.256;2023-05-10T01:51:29;14.40;1.00
435;DHT22;204;48.942;9.256;2023-05-10T01:54:01;14.40;1.00
435;DHT22;204;48.942;9.256;2023-05-10T01:56:30;14.40;1.00
435;DHT22;204;48.942;9.256;2023-05-10T01:58:56;14.40;1.00
435;DHT22;204;48.942;9.256;2023-05-10T02:01:24;14.30;1.00
435;DHT22;204;48.942;9.256;2023-05-10T02:03:51;14.30;1.00
435;DHT22;204;48.942;9.256;2023-05-10T02:06:20;14.30;1.00
435;DHT22;204;48.942;9.256;2023-05-10T02:08:49;14.30;1.00
435;DHT22;204;48.942;9.256;2023-05-10T02:11:18;14.30;1.00
435;DHT22;204;48.942;9.256;2023-05-10T02:13:48;14.30;1.00
435;DHT22;204;48.942;9.256;2023-05-10T02:16:16;14.40;1.00
435;DHT22;204;48.942;9.256;2023-05-10T02:18:42;14.40;1.00
435;DHT22;204;48.942;9.256;2023-05-10T02:21:09;14.40;1.00
435;DHT22;204;48.942;9.256;2023-05-10T02:23:36;14.50;1.00
435;DHT22;204;48.942;9.256;2023-05-10T02:26:03;14.60;1.00
435;DHT22;204;48.942;9.256;2023-05-10T02:28:29;14.60;1.00
435;DHT22;204;48.942;9.256;2023-05-10T02:30:56;14.60;1.00
435;DHT22;204;48.942;9.256;2023-05-10T02:33:22;14.60;1.00
435;DHT22;204;48.942;9.256;2023-05-10T02:35:50;14.70;1.00
435;DHT22;204;48.942;9.256;2023-05-10T02:38:17;14.70;1.00
435;DHT22;204;48.942;9.256;2023-05-10T02:40:44;14.80;1.00
435;DHT22;204;48.942;9.256;2023-05-10T02:43:13;14.80;1.00
435;DHT22;204;48.942;9.256;2023-05-10T02:45:40;14.90;1.00
435;DHT22;204;48.942;9.256;2023-05-10T02:48:07;14.90;1.00
435;DHT22;204;48.942;9.256;2023-05-10T02:50:33;14.90;1.00
435;DHT22;204;48.942;9.256;2023-05-10T02:53:03;14.90;1.00
435;DHT22;204;48.942;9.256;2023-05-10T02:55:38;15.00;1.00
435;DHT22;204;48.942;9.256;2023-05-10T02:58:05;15.00;1.00
435;DHT22;204;48.942;9.256;2023-05-10T03:00:31;15.10;1.00
435;DHT22;204;48.942;9.256;2023-05-10T03:02:56;15.10;1.00
435;DHT22;204;48.942;9.256;2023-05-10T03:05:22;15.20;1.00
435;DHT22;204;48.942;9.256;2023-05-10T03:07:48;15.20;1.00
435;DHT22;204;48.942;9.256;2023-05-10T03:10:15;15.10;1.00
435;DHT22;204;48.942;9.256;2023-05-10T03:15:25;15.10;1.00
435;DHT22;204;48.942;9.256;2023-05-10T03:18:15;15.10;1.00
435;DHT22;204;48.942;9.256;2023-05-10T03:20:52;15.20;1.00
435;DHT22;204;48.942;9.256;2023-05-10T03:23:27;15.20;1.00
435;DHT22;204;48.942;9.256;2023-05-10T03:25:55;15.20;1.00
435;DHT22;204;48.942;9.256;2023-05-10T03:28:24;15.20;1.00
435;DHT22;204;48.942;9.256;2023-05-10T03:30:52;15.20;1.00
435;DHT22;204;48.942;9.256;2023-05-10T03:33:18;15.20;1.00
435;DHT22;204;48.942;9.256;2023-05-10T03:35:45;15.20;1.00
435;DHT22;204;48.942;9.256;2023-05-10T03:38:14;15.20;1.00
435;DHT22;204;48.942;9.256;2023-05-10T03:40:40;15.20;1.00
435;DHT22;204;48.942;9.256;2023-05-10T03:43:05;15.20;1.00
435;DHT22;204;48.942;9.256;2023-05-10T03:45:31;15.20;1.00
435;DHT22;204;48.942;9.256;2023-05-10T03:47:57;15.20;1.00
435;DHT22;204;48.942;9.256;2023-05-10T03:50:23;15.20;1.00
435;DHT22;204;48.942;9.256;2023-05-10T03:52:49;15.20;1.00
435;DHT22;204;48.942;9.256;2023-05-10T03:55:15;15.10;1.00
435;DHT22;204;48.942;9.256;2023-05-10T03:57:41;15.10;1.00
435;DHT22;204;48.942;9.256;2023-05-10T04:00:07;15.10;1.00
435;DHT22;204;48.942;9.256;2023-05-10T04:02:33;15.10;1.00
435;DHT22;204;48.942;9.256;2023-05-10T04:04:59;15.10;1.00
435;DHT22;204;48.942;9.256;2023-05-10T04:07:24;15.10;1.00
435;DHT22;204;48.942;9.256;2023-05-10T04:09:50;15.10;1.00
435;DHT22;204;48.942;9.256;2023-05-10T04:12:15;15.10;1.00
435;DHT22;204;48.942;9.256;2023-05-10T04:14:41;15.10;1.00
435;DHT22;204;48.942;9.256;2023-05-10T04:17:07;15.10;1.00
435;DHT22;204;48.942;9.256;2023-05-10T04:19:32;15.10;1.00
435;DHT22;204;48.942;9.256;2023-05-10T04:21:58;15.10;1.00
435;DHT22;204;48.942;9.256;2023-05-10T04:24:24;15.20;1.00
435;DHT22;204;48.942;9.256;2023-05-10T04:26:50;15.20;1.00
435;DHT22;204;48.942;9.256;2023-05-10T04:29:16;15.10;1.00
435;DHT22;204;48.942;9.256;2023-05-10T04:31:41;15.20;1.00
435;DHT22;204;48.942;9.256;2023-05-10T04:34:07;15.20;1.00
435;DHT22;204;48.942;9.256;2023-05-10T04:36:33;15.20;1.00
435;DHT22;204;48.942;9.256;2023-05-10T04:39:00;15.10;1.00
435;DHT22;204;48.942;9.256;2023-05-10T04:41:28;15.10;1.00
435;DHT22;204;48.942;9.256;2023-05-10T04:43:54;15.10;1.00
435;DHT22;204;48.942;9.256;2023-05-10T04:46:19;15.10;1.00
435;DHT22;204;48.942;9.256;2023-05-10T04:48:45;15.10;1.00
435;DHT22;204;48.942;9.256;2023-05-10T04:51:11;15.10;1.00
435;DHT22;204;48.942;9.256;2023-05-10T04:53:36;15.10;1.00
435;DHT22;204;48.942;9.256;2023-05-10T04:56:02;15.10;1.00
435;DHT22;204;48.942;9.256;2023-05-10T04:58:27;15.10;1.00
435;DHT22;204;48.942;9.256;2023-05-10T05:00:53;15.10;1.00
435;DHT22;204;48.942;9.256;2023-05-10T05:03:19;15.20;1.00
435;DHT22;204;48.942;9.256;2023-05-10T05:05:44;15.30;1.00
435;DHT22;204;48.942;9.256;2023-05-10T05:08:11;15.30;1.00
435;DHT22;204;48.942;9.256;2023-05-10T05:10:37;15.40;1.00
435;DHT22;204;48.942;9.256;2023-05-10T05:13:02;15.50;1.00
435;DHT22;204;48.942;9.256;2023-05-10T05:15:28;15.60;1.00
435;DHT22;204;48.942;9.256;2023-05-10T05:17:53;15.60;1.00
435;DHT22;204;48.942;9.256;2023-05-10T05:20:19;15.60;1.00
435;DHT22;204;48.942;9.256;2023-05-10T05:22:45;15.70;1.00
435;DHT22;204;48.942;9.256;2023-05-10T05:25:10;15.80;1.00
435;DHT22;204;48.942;9.256;2023-05-10T05:27:37;15.90;1.00
435;DHT22;204;48.942;9.256;2023-05-10T05:30:02;16.10;1.00
435;DHT22;204;48.942;9.256;2023-05-10T05:32:28;16.30;1.00
435;DHT22;204;48.942;9.256;2023-05-10T05:34:54;16.60;1.00
435;DHT22;204;48.942;9.256;2023-05-10T05:37:20;16.80;1.00
435;DHT22;204;48.942;9.256;2023-05-10T05:39:47;17.00;1.00
435;DHT22;204;48.942;9.256;2023-05-10T05:42:13;17.10;1.00
435;DHT22;204;48.942;9.256;2023-05-10T05:44:39;17.20;1.00
435;DHT22;204;48.942;9.256;2023-05-10T05:47:05;17.40;1.00
435;DHT22;204;48.942;9.256;2023-05-10T05:49:31;17.50;1.00
435;DHT22;204;48.942;9.256;2023-05-10T05:52:01;17.60;1.00
435;DHT22;204;48.942;9.256;2023-05-10T05:54:27;17.60;1.00
435;DHT22;204;48.942;9.256;2023-05-10T05:56:57;17.70;1.00
435;DHT22;204;48.942;9.256;2023-05-10T05:59:23;17.80;1.00
435;DHT22;204;48.942;9.256;2023-05-10T06:01:49;17.90;1.00
435;DHT22;204;48.942;9.256;2023-05-10T06:04:15;18.00;1.00
435;DHT22;204;48.942;9.256;2023-05-10T06:06:41;18.00;1.00
435;DHT22;204;48.942;9.256;2023-05-10T06:09:07;18.10;1.00
435;DHT22;204;48.942;9.256;2023-05-10T06:11:34;18.20;1.00
435;DHT22;204;48.942;9.256;2023-05-10T06:14:00;18.30;1.00
435;DHT22;204;48.942;9.256;2023-05-10T06:16:25;18.30;1.00
435;DHT22;204;48.942;9.256;2023-05-10T06:18:51;18.40;1.00
435;DHT22;204;48.942;9.256;2023-05-10T06:21:17;18.40;1.00
435;DHT22;204;48.942;9.256;2023-05-10T06:23:42;18.40;1.00
435;DHT22;204;48.942;9.256;2023-05-10T06:26:08;18.40;1.00
435;DHT22;204;48.942;9.256;2023-05-10T06:28:33;18.40;1.00
435;DHT22;204;48.942;9.256;2023-05-10T06:30:59;18.30;1.00
435;DHT22;204;48.942;9.256;2023-05-10T06:33:25;18.30;1.00
435;DHT22;204;48.942;9.256;2023-05-10T06:35:51;18.20;1.00
435;DHT22;204;48.942;9.256;2023-05-10T06:38:17;18.20;1.00
435;DHT22;204;48.942;9.256;2023-05-10T06:40:42;18.10;1.00
435;DHT22;204;48.942;9.256;2023-05-10T06:43:09;18.00;1.00
435;DHT22;204;48.942;9.256;2023-05-10T06:45:34;18.10;1.00
435;DHT22;204;48.942;9.256;2023-05-10T06:48:00;18.10;1.00
435;DHT22;204;48.942;9.256;2023-05-10T06:50:26;18.10;1.00
435;DHT22;204;48.942;9.256;2023-05-10T06:52:52;18.10;1.00
435;DHT22;204;48.942;9.256;2023-05-10T06:55:17;18.10;1.00
435;DHT22;204;48.942;9.256;2023-05-10T06:57:43;18.20;1.00
435;DHT22;204;48.942;9.256;2023-05-10T07:00:08;18.30;1.00
435;DHT22;204;48.942;9.256;2023-05-10T07:02:35;18.40;1.00
435;DHT22;204;48.942;9.256;2023-05-10T07:05:01;18.50;1.00
435;DHT22;204;48.942;9.256;2023-05-10T07:07:27;18.50;1.00
435;DHT22;204;48.942;9.256;2023-05-10T07:09:53;18.60;1.00
435;DHT22;204;48.942;9.256;2023-05-10T07:12:18;18.70;1.00
435;DHT22;204;48.942;9.256;2023-05-10T07:14:44;18.80;1.00
435;DHT22;204;48.942;9.256;2023-05-10T07:17:10;18.80;1.00
435;DHT22;204;48.942;9.256;2023-05-10T07:19:36;18.90;1.00
435;DHT22;204;48.942;9.256;2023-05-10T07:22:01;19.00;1.00
435;DHT22;204;48.942;9.256;2023-05-10T07:24:27;19.10;1.00
435;DHT22;204;48.942;9.256;2023-05-10T07:26:53;19.20;1.00
435;DHT22;204;48.942;9.256;2023-05-10T07:29:18;19.20;1.00
435;DHT22;204;48.942;9.256;2023-05-10T07:31:44;19.10;1.00
435;DHT22;204;48.942;9.256;2023-05-10T07:34:09;19.00;1.00
435;DHT22;204;48.942;9.256;2023-05-10T07:36:35;18.90;1.00
435;DHT22;204;48.942;9.256;2023-05-10T07:39:01;18.80;1.00
435;DHT22;204;48.942;9.256;2023-05-10T07:41:26;18.90;1.00
435;DHT22;204;48.942;9.256;2023-05-10T07:43:52;18.90;1.00
435;DHT22;204;48.942;9.256;2023-05-10T07:46:18;18.90;1.00
435;DHT22;204;48.942;9.256;2023-05-10T07:48:45;19.00;1.00
435;DHT22;204;48.942;9.256;2023-05-10T07:51:10;19.00;1.00
435;DHT22;204;48.942;9.256;2023-05-10T07:53:37;19.10;1.00
435;DHT22;204;48.942;9.256;2023-05-10T07:56:22;19.20;1.00
435;DHT22;204;48.942;9.256;2023-05-10T07:58:47;19.20;1.00
435;DHT22;204;48.942;9.256;2023-05-10T08:01:13;19.10;1.00
435;DHT22;204;48.942;9.256;2023-05-10T08:03:38;19.10;1.00
435;DHT22;204;48.942;9.256;2023-05-10T08:06:04;19.20;1.00
435;DHT22;204;48.942;9.256;2023-05-10T08:08:30;19.20;1.00
435;DHT22;204;48.942;9.256;2023-05-10T08:10:56;19.10;1.00
435;DHT22;204;48.942;9.256;2023-05-10T08:13:21;19.10;1.00
435;DHT22;204;48.942;9.256;2023-05-10T08:15:47;19.00;1.00
435;DHT22;204;48.942;9.256;2023-05-10T08:18:12;19.20;1.00
435;DHT22;204;48.942;9.256;2023-05-10T08:20:38;19.50;1.00
435;DHT22;204;48.942;9.256;2023-05-10T08:23:03;19.60;1.00
435;DHT22;204;48.942;9.256;2023-05-10T08:25:29;19.70;1.00
435;DHT22;204;48.942;9.256;2023-05-10T08:27:55;19.80;1.00
435;DHT22;204;48.942;9.256;2023-05-10T08:30:20;19.70;1.00
435;DHT22;204;48.942;9.256;2023-05-10T08:32:46;19.60;1.00
435;DHT22;204;48.942;9.256;2023-05-10T08:35:11;19.50;1.00
435;DHT22;204;48.942;9.256;2023-05-10T08:37:37;19.40;1.00
435;DHT22;204;48.942;9.256;2023-05-10T08:40:03;19.50;1.00
435;DHT22;204;48.942;9.256;2023-05-10T08:42:30;19.60;1.00
435;DHT22;204;48.942;9.256;2023-05-10T08:44:57;19.70;1.00
435;DHT22;204;48.942;9.256;2023-05-10T08:47:25;19.80;1.00
435;DHT22;204;48.942;9.256;2023-05-10T08:49:51;19.90;1.00
435;DHT22;204;48.942;9.256;2023-05-10T08:52:17;20.00;1.00
435;DHT22;204;48.942;9.256;2023-05-10T08:54:43;20.20;1.00
435;DHT22;204;48.942;9.256;2023-05-10T08:57:10;20.40;1.00
435;DHT22;204;48.942;9.256;2023-05-10T08:59:36;20.50;1.00
435;DHT22;204;48.942;9.256;2023-05-10T09:02:05;20.70;1.00
435;DHT22;204;48.942;9.256;2023-05-10T09:04:31;21.00;1.00
435;DHT22;204;48.942;9.256;2023-05-10T09:06:57;21.20;1.00
435;DHT22;204;48.942;9.256;2023-05-10T09:09:24;21.30;1.00
435;DHT22;204;48.942;9.256;2023-05-10T09:11:51;21.40;1.00
435;DHT22;204;48.942;9.256;2023-05-10T09:14:17;21.50;1.00
435;DHT22;204;48.942;9.256;2023-05-10T09:16:44;21.60;1.00
435;DHT22;204;48.942;9.256;2023-05-10T09:19:09;21.60;1.00
435;DHT22;204;48.942;9.256;2023-05-10T09:21:36;21.60;1.00
435;DHT22;204;48.942;9.256;2023-05-10T09:24:05;21.60;1.00
435;DHT22;204;48.942;9.256;2023-05-10T09:26:31;21.20;1.00
435;DHT22;204;48.942;9.256;2023-05-10T09:28:58;20.40;1.00
435;DHT22;204;48.942;9.256;2023-05-10T09:31:24;19.90;1.00
435;DHT22;204;48.942;9.256;2023-05-10T09:33:53;19.20;1.00
435;DHT22;204;48.942;9.256;2023-05-10T09:36:18;18.90;1.00
435;DHT22;204;48.942;9.256;2023-05-10T09:38:48;18.50;1.00
435;DHT22;204;48.942;9.256;2023-05-10T09:43:43;18.20;1.00
435;DHT22;204;48.942;9.256;2023-05-10T09:46:09;18.20;1.00
435;DHT22;204;48.942;9.256;2023-05-10T09:48:45;18.40;1.00
435;DHT22;204;48.942;9.256;2023-05-10T09:51:21;18.50;1.00
435;DHT22;204;48.942;9.256;2023-05-10T09:53:47;18.80;1.00
435;DHT22;204;48.942;9.256;2023-05-10T09:56:33;19.30;1.00
435;DHT22;204;48.942;9.256;2023-05-10T09:59:03;19.80;1.00
435;DHT22;204;48.942;9.256;2023-05-10T10:01:29;20.40;1.00
435;DHT22;204;48.942;9.256;2023-05-10T10:03:56;21.00;1.00
435;DHT22;204;48.942;9.256;2023-05-10T10:06:23;21.50;1.00
435;DHT22;204;48.942;9.256;2023-05-10T10:08:49;22.00;1.00
435;DHT22;204;48.942;9.256;2023-05-10T10:11:15;22.20;1.00
435;DHT22;204;48.942;9.256;2023-05-10T10:13:41;22.40;1.00
435;DHT22;204;48.942;9.256;2023-05-10T10:16:08;22.50;1.00
435;DHT22;204;48.942;9.256;2023-05-10T10:18:35;22.80;1.00
435;DHT22;204;48.942;9.256;2023-05-10T10:21:07;23.00;1.00
435;DHT22;204;48.942;9.256;2023-05-10T10:23:35;22.80;1.00
435;DHT22;204;48.942;9.256;2023-05-10T10:26:02;22.70;1.00
435;DHT22;204;48.942;9.256;2023-05-10T10:31:15;22.50;1.00
435;DHT22;204;48.942;9.256;2023-05-10T10:33:56;22.40;1.00
435;DHT22;204;48.942;9.256;2023-05-10T10:36:24;22.40;1.00
435;DHT22;204;48.942;9.256;2023-05-10T10:38:58;22.50;1.00
435;DHT22;204;48.942;9.256;2023-05-10T10:49:52;22.30;1.00
435;DHT22;204;48.942;9.256;2023-05-10T10:55:17;22.30;1.00
435;DHT22;204;48.942;9.256;2023-05-10T10:57:49;22.20;1.00
435;DHT22;204;48.942;9.256;2023-05-10T11:00:37;22.20;1.00
435;DHT22;204;48.942;9.256;2023-05-10T11:03:09;22.10;1.00
435;DHT22;204;48.942;9.256;2023-05-10T11:05:48;22.00;1.00
435;DHT22;204;48.942;9.256;2023-05-10T11:08:26;21.60;1.00
435;DHT22;204;48.942;9.256;2023-05-10T11:10:53;20.90;1.00
435;DHT22;204;48.942;9.256;2023-05-10T11:13:44;20.20;1.00
435;DHT22;204;48.942;9.256;2023-05-10T11:16:22;19.70;1.00
435;DHT22;204;48.942;9.256;2023-05-10T11:21:27;19.40;1.00
435;DHT22;204;48.942;9.256;2023-05-10T11:23:55;19.40;1.00
435;DHT22;204;48.942;9.256;2023-05-10T11:26:25;19.50;1.00
435;DHT22;204;48.942;9.256;2023-05-10T11:28:53;19.80;1.00
435;DHT22;204;48.942;9.256;2023-05-10T11:31:22;20.20;1.00
435;DHT22;204;48.942;9.256;2023-05-10T11:33:49;20.50;1.00
435;DHT22;204;48.942;9.256;2023-05-10T11:36:35;20.90;1.00
435;DHT22;204;48.942;9.256;2023-05-10T11:39:01;21.10;1.00
435;DHT22;204;48.942;9.256;2023-05-10T11:41:28;21.40;1.00
435;DHT22;204;48.942;9.256;2023-05-10T11:43:55;21.40;1.00
435;DHT22;204;48.942;9.256;2023-05-10T11:46:23;21.50;1.00
435;DHT22;204;48.942;9.256;2023-05-10T11:48:50;21.60;1.00
435;DHT22;204;48.942;9.256;2023-05-10T11:51:20;21.60;1.00
435;DHT22;204;48.942;9.256;2023-05-10T11:53:46;21.70;1.00
435;DHT22;204;48.942;9.256;2023-05-10T11:56:11;21.80;1.00
435;DHT22;204;48.942;9.256;2023-05-10T11:58:38;21.90;1.00
435;DHT22;204;48.942;9.256;2023-05-10T12:01:06;22.00;1.00
435;DHT22;204;48.942;9.256;2023-05-10T12:03:33;22.00;1.00
435;DHT22;204;48.942;9.256;2023-05-10T12:05:59;21.90;1.00
435;DHT22;204;48.942;9.256;2023-05-10T12:08:27;21.90;1.00
435;DHT22;204;48.942;9.256;2023-05-10T12:11:03;21.90;1.00
435;DHT22;204;48.942;9.256;2023-05-10T12:13:28;21.80;1.00
435;DHT22;204;48.942;9.256;2023-05-10T12:15:57;21.70;1.00
435;DHT22;204;48.942;9.256;2023-05-10T12:18:24;21.90;1.00
435;DHT22;204;48.942;9.256;2023-05-10T12:20:52;22.10;1.00
435;DHT22;204;48.942;9.256;2023-05-10T12:23:20;22.30;99.90
435;DHT22;204;48.942;9.256;2023-05-10T12:25:45;22.50;99.90
435;DHT22;204;48.942;9.256;2023-05-10T12:28:11;22.60;99.90
435;DHT22;204;48.942;9.256;2023-05-10T12:30:38;22.70;99.90
435;DHT22;204;48.942;9.256;2023-05-10T12:40:55;22.60;99.90
435;DHT22;204;48.942;9.256;2023-05-10T12:43:21;22.40;99.90
435;DHT22;204;48.942;9.256;2023-05-10T12:45:47;22.40;99.90
435;DHT22;204;48.942;9.256;2023-05-10T12:48:14;22.30;99.90
435;DHT22;204;48.942;9.256;2023-05-10T12:50:40;22.20;99.90
435;DHT22;204;48.942;9.256;2023-05-10T12:53:06;22.30;99.90
435;DHT22;204;48.942;9.256;2023-05-10T12:55:31;22.30;99.90
435;DHT22;204;48.942;9.256;2023-05-10T12:57:57;22.40;99.90
435;DHT22;204;48.942;9.256;2023-05-10T13:00:22;22.50;99.90
435;DHT22;204;48.942;9.256;2023-05-10T13:02:48;22.50;99.90
435;DHT22;204;48.942;9.256;2023-05-10T13:05:14;22.30;99.90
435;DHT22;204;48.942;9.256;2023-05-10T13:07:39;22.10;99.90
435;DHT22;204;48.942;9.256;2023-05-10T13:10:06;21.90;99.90
435;DHT22;204;48.942;9.256;2023-05-10T13:12:32;22.00;99.90
435;DHT22;204;48.942;9.256;2023-05-10T13:14:57;22.00;99.90
435;DHT22;204;48.942;9.256;2023-05-10T13:17:24;21.80;99.90
435;DHT22;204;48.942;9.256;2023-05-10T13:19:50;21.70;99.90
435;DHT22;204;48.942;9.256;2023-05-10T13:22:16;21.70;99.90
435;DHT22;204;48.942;9.256;2023-05-10T13:24:41;21.60;99.90
435;DHT22;204;48.942;9.256;2023-05-10T13:27:07;21.60;99.90
435;DHT22;204;48.942;9.256;2023-05-10T13:29:32;21.50;99.90
435;DHT22;204;48.942;9.256;2023-05-10T13:31:58;21.40;99.90
435;DHT22;204;48.942;9.256;2023-05-10T13:34:24;21.50;99.90
435;DHT22;204;48.942;9.256;2023-05-10T13:36:50;21.60;99.90
435;DHT22;204;48.942;9.256;2023-05-10T13:39:16;21.70;99.90
435;DHT22;204;48.942;9.256;2023-05-10T13:41:42;21.70;99.90
435;DHT22;204;48.942;9.256;2023-05-10T13:44:07;21.80;99.90
435;DHT22;204;48.942;9.256;2023-05-10T13:46:33;21.70;99.90
435;DHT22;204;48.942;9.256;2023-05-10T13:48:58;21.90;99.90
435;DHT22;204;48.942;9.256;2023-05-10T13:51:24;22.00;99.90
435;DHT22;204;48.942;9.256;2023-05-10T13:53:50;22.10;99.90
435;DHT22;204;48.942;9.256;2023-05-10T13:56:15;22.00;99.90
435;DHT22;204;48.942;9.256;2023-05-10T13:58:41;22.00;99.90
435;DHT22;204;48.942;9.256;2023-05-10T14:01:07;21.90;99.90
435;DHT22;204;48.942;9.256;2023-05-10T14:03:33;21.90;99.90
435;DHT22;204;48.942;9.256;2023-05-10T14:05:58;21.80;99.90
435;DHT22;204;48.942;9.256;2023-05-10T14:08:24;21.90;99.90
435;DHT22;204;48.942;9.256;2023-05-10T14:10:49;21.90;99.90
435;DHT22;204;48.942;9.256;2023-05-10T14:13:16;21.90;99.90
435;DHT22;204;48.942;9.256;2023-05-10T14:15:41;21.80;99.90
435;DHT22;204;48.942;9.256;2023-05-10T14:18:07;21.90;99.90
435;DHT22;204;48.942;9.256;2023-05-10T14:20:32;22.10;99.90
435;DHT22;204;48.942;9.256;2023-05-10T14:22:59;22.10;99.90
435;DHT22;204;48.942;9.256;2023-05-10T14:25:25;22.10;99.90
435;DHT22;204;48.942;9.256;2023-05-10T14:27:51;22.00;99.90
435;DHT22;204;48.942;9.256;2023-05-10T14:30:16;21.90;99.90
435;DHT22;204;48.942;9.256;2023-05-10T14:32:42;21.90;99.90
435;DHT22;204;48.942;9.256;2023-05-10T14:35:08;21.90;99.90
435;DHT22;204;48.942;9.256;2023-05-10T14:37:34;21.70;99.90
435;DHT22;204;48.942;9.256;2023-05-10T14:39:59;21.60;99.90
435;DHT22;204;48.942;9.256;2023-05-10T14:42:25;21.50;99.90
435;DHT22;204;48.942;9.256;2023-05-10T14:44:51;21.50;99.90
435;DHT22;204;48.942;9.256;2023-05-10T14:47:16;21.50;99.90
435;DHT22;204;48.942;9.256;2023-05-10T14:49:42;21.50;99.90
435;DHT22;204;48.942;9.256;2023-05-10T14:52:07;21.50;99.90
435;DHT22;204;48.942;9.256;2023-05-10T14:54:33;21.60;99.90
435;DHT22;204;48.942;9.256;2023-05-10T14:56:59;21.70;99.90
435;DHT22;204;48.942;9.256;2023-05-10T14:59:25;21.90;99.90
435;DHT22;204;48.942;9.256;2023-05-10T15:01:51;22.00;99.90
435;DHT22;204;48.942;9.256;2023-05-10T15:04:16;22.10;99.90
435;DHT22;204;48.942;9.256;2023-05-10T15:06:42;22.10;99.90
435;DHT22;204;48.942;9.256;2023-05-10T15:09:08;22.20;99.90
435;DHT22;204;48.942;9.256;2023-05-10T15:11:34;22.30;99.90
435;DHT22;204;48.942;9.256;2023-05-10T15:14:01;22.40;99.90
435;DHT22;204;48.942;9.256;2023-05-10T15:16:27;22.40;99.90
435;DHT22;204;48.942;9.256;2023-05-10T15:18:52;22.50;99.90
435;DHT22;204;48.942;9.256;2023-05-10T15:21:18;22.60;99.90
435;DHT22;204;48.942;9.256;2023-05-10T15:23:43;22.70;99.90
435;DHT22;204;48.942;9.256;2023-05-10T15:26:09;22.70;99.90
435;DHT22;204;48.942;9.256;2023-05-10T15:28:35;22.80;99.90
435;DHT22;204;48.942;9.256;2023-05-10T15:31:00;22.60;99.90
435;DHT22;204;48.942;9.256;2023-05-10T15:33:26;22.60;99.90
435;DHT22;204;48.942;9.256;2023-05-10T15:35:52;22.60;99.90
435;DHT22;204;48.942;9.256;2023-05-10T15:38:19;22.60;99.90
435;DHT22;204;48.942;9.256;2023-05-10T15:40:44;22.60;99.90
435;DHT22;204;48.942;9.256;2023-05-10T15:43:10;22.60;99.90
435;DHT22;204;48.942;9.256;2023-05-10T15:45:36;22.60;99.90
435;DHT22;204;48.942;9.256;2023-05-10T15:48:02;22.50;99.90
435;DHT22;204;48.942;9.256;2023-05-10T15:50:27;22.40;99.90
435;DHT22;204;48.942;9.256;2023-05-10T15:52:53;22.30;99.90
435;DHT22;204;48.942;9.256;2023-05-10T15:55:19;22.20;99.90
435;DHT22;204;48.942;9.256;2023-05-10T15:57:45;22.20;99.90
435;DHT22;204;48.942;9.256;2023-05-10T16:00:11;22.30;99.90
435;DHT22;204;48.942;9.256;2023-05-10T16:02:41;22.30;99.90
435;DHT22;204;48.942;9.256;2023-05-10T16:05:07;22.30;99.90
435;DHT22;204;48.942;9.256;2023-05-10T16:07:34;22.30;99.90
435;DHT22;204;48.942;9.256;2023-05-10T16:09:59;22.20;99.90
435;DHT22;204;48.942;9.256;2023-05-10T16:12:29;22.10;99.90
435;DHT22;204;48.942;9.256;2023-05-10T16:14:54;22.00;99.90
435;DHT22;204;48.942;9.256;2023-05-10T16:17:20;21.80;99.90
435;DHT22;204;48.942;9.256;2023-05-10T16:19:45;21.80;99.90
435;DHT22;204;48.942;9.256;2023-05-10T16:22:11;21.80;99.90
435;DHT22;204;48.942;9.256;2023-05-10T16:24:37;21.60;99.90
435;DHT22;204;48.942;9.256;2023-05-10T16:27:03;21.50;99.90
435;DHT22;204;48.942;9.256;2023-05-10T16:29:28;21.40;99.90
435;DHT22;204;48.942;9.256;2023-05-10T16:31:54;21.40;99.90
435;DHT22;204;48.942;9.256;2023-05-10T16:34:19;21.40;99.90
435;DHT22;204;48.942;9.256;2023-05-10T16:36:48;21.30;99.90
435;DHT22;204;48.942;9.256;2023-05-10T16:39:14;21.30;99.90
435;DHT22;204;48.942;9.256;2023-05-10T16:41:39;21.20;99.90
435;DHT22;204;48.942;9.256;2023-05-10T16:44:05;21.10;99.90
435;DHT22;204;48.942;9.256;2023-05-10T16:46:30;21.10;99.90
435;DHT22;204;48.942;9.256;2023-05-10T16:48:57;21.00;99.90
435;DHT22;204;48.942;9.256;2023-05-10T16:51:24;20.90;99.90
435;DHT22;204;48.942;9.256;2023-05-10T16:53:49;20.80;99.90
435;DHT22;204;48.942;9.256;2023-05-10T16:56:15;20.80;99.90
435;DHT22;204;48.942;9.256;2023-05-10T16:58:42;20.70;99.90
435;DHT22;204;48.942;9.256;2023-05-10T17:01:08;20.70;99.90
435;DHT22;204;48.942;9.256;2023-05-10T17:03:34;20.60;99.90
435;DHT22;204;48.942;9.256;2023-05-10T17:05:59;20.50;99.90
435;DHT22;204;48.942;9.256;2023-05-10T17:08:28;20.50;99.90
435;DHT22;204;48.942;9.256;2023-05-10T17:10:53;20.40;99.90
435;DHT22;204;48.942;9.256;2023-05-10T17:13:19;20.30;99.90
435;DHT22;204;48.942;9.256;2023-05-10T17:15:45;20.20;99.90
435;DHT22;204;48.942;9.256;2023-05-10T17:18:11;20.10;99.90
435;DHT22;204;48.942;9.256;2023-05-10T17:20:37;20.10;99.90
435;DHT22;204;48.942;9.256;2023-05-10T17:23:02;19.90;99.90
435;DHT22;204;48.942;9.256;2023-05-10T17:25:28;19.80;99.90
435;DHT22;204;48.942;9.256;2023-05-10T17:27:54;19.80;99.90
435;DHT22;204;48.942;9.256;2023-05-10T17:30:19;19.70;99.90